Terminal Aerodrome Forecast
Issued by NWS

Home | Current Version | Previous Version | Graphics & Text | Print | Product List | Glossary On
Versions: 1 2 3 4 5 6 7 8 9 10 11 12 13 14 15 16
000
FTUS45 KVEF 301739
TAFDAG
TAF
KDAG 301739Z 3018/0118 04005KT P6SM SKC
     FM301900 32008KT P6SM FEW120
     FM010000 25014G22KT P6SM FEW120
     FM010300 24010KT P6SM SKC=

USA.gov is the U.S. government's official web portal to all federal, state and local government web resources and services.